Atlas, MI (48411)

12:25 AM EST on December 08, 2016 (GMT -0500)
Wild Oats Farm | | Change Station

Elev 879 ft 42.93 °N, 83.49 °W | Updated 5 seconds ago

Overcast
Overcast
30.0 °F
Feels Like 18 °F
N
17.3
Wind Variable Wind from WSW
Gusts 17.3 mph

Today
High -- | Low -- °F
--% Chance of Precip.
Yesterday
High -- | Low -- °F
Precip. -- in
Pressure 30.00 in
Visibility 10.0 miles
Clouds Overcast 3400 ft
Windchill 18 °F
Dew Point 23 °F
Humidity 75%
Rainfall 0.00 in
Snow Depth Not available.
7:52 AM 4:59 PM
First Quarter, 59% visible
METAR KFNT 080453Z 26015G19KT 10SM OVC034 00/M06 A2997 RMK AO2 SLP157 T00001056 400391006
Pressure 30.00 in
Visibility 10.0 miles
Clouds Overcast 3400 ft
Windchill 18 °F
Dew Point 23 °F
Humidity 75%
Rainfall 0.00 in
Snow Depth Not available.
7:52 AM 4:59 PM
First Quarter, 59% visible
METAR KFNT 080453Z 26015G19KT 10SM OVC034 00/M06 A2997 RMK AO2 SLP157 T00001056 400391006

10-Day Weather Forecast

Almanac

Astronomy

Dec. 08, 2016 Rise Set
Actual Time
Civil Twilight
Nautical Twilight
Astronomical Twilight
Moon
Length of Visible Light
Length of Day
Tomorrow will be .
, % of the Moon is Illuminated

Today's Extremes

State Highs State Lows

Community

WunderPhotos

Upload Photos

1,956,259 photos uploaded!

WunderBlog® & News

Nearby

Air Quality

  Air Quality AQ Index Pollutant
Not available.

Snow Depth

Station Depth Elevation

Earthquake Activity

City Distance Mag. Time & Date
Minimum magnitude displayed is 2.5.

Coastal Water Temperatures

Place Temperature

Stations

Nearby Weather Stations

Station Location Temp. Windchill Dew Point Humidity Wind Precip. Elev Updated Type
                   

Watches & Warnings

There are currently no watches in effect.